sensor_id;sensor_type;location;lat;lon;timestamp;P1;durP1;ratioP1;P2;durP2;ratioP2
28335;SDS011;15592;53.656;7.276;2022-12-18T00:01:44;251.63;;;65.85;;
28335;SDS011;15592;53.656;7.276;2022-12-18T00:04:23;239.95;;;61.63;;
28335;SDS011;15592;53.656;7.276;2022-12-18T00:06:49;247.82;;;62.17;;
28335;SDS011;15592;53.656;7.276;2022-12-18T00:09:15;226.05;;;62.83;;
28335;SDS011;15592;53.656;7.276;2022-12-18T00:11:41;225.15;;;62.88;;
28335;SDS011;15592;53.656;7.276;2022-12-18T00:14:06;227.10;;;62.15;;
28335;SDS011;15592;53.656;7.276;2022-12-18T00:16:33;227.88;;;61.83;;
28335;SDS011;15592;53.656;7.276;2022-12-18T00:19:01;227.05;;;63.38;;
28335;SDS011;15592;53.656;7.276;2022-12-18T00:21:28;215.88;;;59.67;;
28335;SDS011;15592;53.656;7.276;2022-12-18T00:23:55;228.85;;;62.28;;
28335;SDS011;15592;53.656;7.276;2022-12-18T00:26:23;221.38;;;61.10;;
28335;SDS011;15592;53.656;7.276;2022-12-18T00:28:59;223.98;;;62.13;;
28335;SDS011;15592;53.656;7.276;2022-12-18T00:31:27;218.20;;;59.55;;
28335;SDS011;15592;53.656;7.276;2022-12-18T00:33:56;226.63;;;62.45;;
28335;SDS011;15592;53.656;7.276;2022-12-18T00:36:23;221.50;;;63.08;;
28335;SDS011;15592;53.656;7.276;2022-12-18T00:38:54;201.60;;;57.72;;
28335;SDS011;15592;53.656;7.276;2022-12-18T00:41:20;228.45;;;62.72;;
28335;SDS011;15592;53.656;7.276;2022-12-18T00:44:06;210.60;;;61.75;;
28335;SDS011;15592;53.656;7.276;2022-12-18T00:46:34;209.03;;;60.73;;
28335;SDS011;15592;53.656;7.276;2022-12-18T00:49:00;206.77;;;59.60;;
28335;SDS011;15592;53.656;7.276;2022-12-18T00:51:26;198.82;;;60.17;;
28335;SDS011;15592;53.656;7.276;2022-12-18T00:53:51;199.90;;;59.28;;
28335;SDS011;15592;53.656;7.276;2022-12-18T00:56:17;207.38;;;60.78;;
28335;SDS011;15592;53.656;7.276;2022-12-18T00:58:43;213.07;;;61.13;;
28335;SDS011;15592;53.656;7.276;2022-12-18T01:01:08;213.25;;;62.97;;
28335;SDS011;15592;53.656;7.276;2022-12-18T01:03:34;202.60;;;62.25;;
28335;SDS011;15592;53.656;7.276;2022-12-18T01:06:04;205.18;;;62.00;;
28335;SDS011;15592;53.656;7.276;2022-12-18T01:08:31;202.80;;;60.42;;
28335;SDS011;15592;53.656;7.276;2022-12-18T01:10:57;199.35;;;58.22;;
28335;SDS011;15592;53.656;7.276;2022-12-18T01:13:22;185.52;;;58.30;;
28335;SDS011;15592;53.656;7.276;2022-12-18T01:15:49;199.80;;;59.38;;
28335;SDS011;15592;53.656;7.276;2022-12-18T01:18:15;197.07;;;60.88;;
28335;SDS011;15592;53.656;7.276;2022-12-18T01:20:41;196.52;;;60.90;;
28335;SDS011;15592;53.656;7.276;2022-12-18T01:23:06;197.18;;;59.17;;
28335;SDS011;15592;53.656;7.276;2022-12-18T01:25:32;191.20;;;58.25;;
28335;SDS011;15592;53.656;7.276;2022-12-18T01:27:57;202.25;;;63.40;;
28335;SDS011;15592;53.656;7.276;2022-12-18T01:30:23;196.80;;;61.50;;
28335;SDS011;15592;53.656;7.276;2022-12-18T01:32:49;196.77;;;59.53;;
28335;SDS011;15592;53.656;7.276;2022-12-18T01:35:14;193.60;;;60.15;;
28335;SDS011;15592;53.656;7.276;2022-12-18T01:37:40;195.35;;;59.47;;
28335;SDS011;15592;53.656;7.276;2022-12-18T01:40:06;185.85;;;57.90;;
28335;SDS011;15592;53.656;7.276;2022-12-18T01:42:32;188.20;;;59.80;;
28335;SDS011;15592;53.656;7.276;2022-12-18T01:50:22;190.20;;;62.13;;
28335;SDS011;15592;53.656;7.276;2022-12-18T01:53:07;198.88;;;60.25;;
28335;SDS011;15592;53.656;7.276;2022-12-18T01:55:48;188.13;;;57.85;;
28335;SDS011;15592;53.656;7.276;2022-12-18T01:58:19;178.68;;;56.08;;
28335;SDS011;15592;53.656;7.276;2022-12-18T02:01:00;185.88;;;57.45;;
28335;SDS011;15592;53.656;7.276;2022-12-18T02:03:25;187.65;;;57.95;;
28335;SDS011;15592;53.656;7.276;2022-12-18T02:19:34;194.35;;;58.28;;
28335;SDS011;15592;53.656;7.276;2022-12-18T02:25:07;193.77;;;55.83;;
28335;SDS011;15592;53.656;7.276;2022-12-18T02:27:50;194.13;;;56.10;;
28335;SDS011;15592;53.656;7.276;2022-12-18T02:30:17;201.00;;;59.25;;
28335;SDS011;15592;53.656;7.276;2022-12-18T02:32:45;197.45;;;56.83;;
28335;SDS011;15592;53.656;7.276;2022-12-18T02:35:16;187.88;;;57.22;;
28335;SDS011;15592;53.656;7.276;2022-12-18T02:37:46;191.00;;;54.13;;
28335;SDS011;15592;53.656;7.276;2022-12-18T02:40:12;183.38;;;56.38;;
28335;SDS011;15592;53.656;7.276;2022-12-18T02:42:40;181.18;;;55.22;;
28335;SDS011;15592;53.656;7.276;2022-12-18T02:45:06;174.65;;;53.53;;
28335;SDS011;15592;53.656;7.276;2022-12-18T02:47:34;191.60;;;55.65;;
28335;SDS011;15592;53.656;7.276;2022-12-18T03:01:31;186.25;;;55.65;;
28335;SDS011;15592;53.656;7.276;2022-12-18T03:04:14;177.45;;;52.63;;
28335;SDS011;15592;53.656;7.276;2022-12-18T03:06:51;179.23;;;54.30;;
28335;SDS011;15592;53.656;7.276;2022-12-18T03:09:21;191.48;;;55.30;;
28335;SDS011;15592;53.656;7.276;2022-12-18T03:11:54;189.50;;;54.47;;
28335;SDS011;15592;53.656;7.276;2022-12-18T03:14:42;175.23;;;53.75;;
28335;SDS011;15592;53.656;7.276;2022-12-18T03:17:10;182.10;;;52.40;;
28335;SDS011;15592;53.656;7.276;2022-12-18T03:19:41;179.02;;;52.78;;
28335;SDS011;15592;53.656;7.276;2022-12-18T03:22:08;188.80;;;52.40;;
28335;SDS011;15592;53.656;7.276;2022-12-18T03:24:35;183.45;;;53.40;;
28335;SDS011;15592;53.656;7.276;2022-12-18T03:27:05;184.57;;;54.42;;
28335;SDS011;15592;53.656;7.276;2022-12-18T03:29:38;182.82;;;52.33;;
28335;SDS011;15592;53.656;7.276;2022-12-18T03:32:10;190.07;;;54.83;;
28335;SDS011;15592;53.656;7.276;2022-12-18T03:34:41;173.63;;;51.25;;
28335;SDS011;15592;53.656;7.276;2022-12-18T03:37:07;169.60;;;51.30;;
28335;SDS011;15592;53.656;7.276;2022-12-18T03:39:33;186.35;;;51.55;;
28335;SDS011;15592;53.656;7.276;2022-12-18T03:44:45;175.75;;;51.92;;
28335;SDS011;15592;53.656;7.276;2022-12-18T03:47:14;181.70;;;51.65;;
28335;SDS011;15592;53.656;7.276;2022-12-18T03:52:46;196.82;;;52.85;;
28335;SDS011;15592;53.656;7.276;2022-12-18T03:55:18;188.65;;;50.63;;
28335;SDS011;15592;53.656;7.276;2022-12-18T03:57:46;180.27;;;51.63;;
28335;SDS011;15592;53.656;7.276;2022-12-18T04:00:14;172.23;;;50.90;;
28335;SDS011;15592;53.656;7.276;2022-12-18T04:02:50;180.57;;;52.58;;
28335;SDS011;15592;53.656;7.276;2022-12-18T04:05:18;169.57;;;51.17;;
28335;SDS011;15592;53.656;7.276;2022-12-18T04:07:45;185.32;;;53.05;;
28335;SDS011;15592;53.656;7.276;2022-12-18T04:10:13;184.95;;;52.67;;
28335;SDS011;15592;53.656;7.276;2022-12-18T04:12:40;178.55;;;52.15;;
28335;SDS011;15592;53.656;7.276;2022-12-18T04:15:07;177.25;;;51.80;;
28335;SDS011;15592;53.656;7.276;2022-12-18T04:17:33;178.55;;;52.80;;
28335;SDS011;15592;53.656;7.276;2022-12-18T04:19:59;168.70;;;50.70;;
28335;SDS011;15592;53.656;7.276;2022-12-18T04:22:25;185.25;;;53.75;;
28335;SDS011;15592;53.656;7.276;2022-12-18T04:24:51;194.15;;;53.85;;
28335;SDS011;15592;53.656;7.276;2022-12-18T04:27:17;180.65;;;52.83;;
28335;SDS011;15592;53.656;7.276;2022-12-18T04:29:43;188.85;;;55.05;;
28335;SDS011;15592;53.656;7.276;2022-12-18T04:32:08;167.48;;;51.40;;
28335;SDS011;15592;53.656;7.276;2022-12-18T04:34:34;185.38;;;54.28;;
28335;SDS011;15592;53.656;7.276;2022-12-18T04:37:00;177.45;;;52.97;;
28335;SDS011;15592;53.656;7.276;2022-12-18T04:39:25;179.27;;;55.33;;
28335;SDS011;15592;53.656;7.276;2022-12-18T04:41:51;171.18;;;52.13;;
28335;SDS011;15592;53.656;7.276;2022-12-18T04:44:17;169.13;;;53.53;;
28335;SDS011;15592;53.656;7.276;2022-12-18T04:46:42;166.15;;;52.65;;
28335;SDS011;15592;53.656;7.276;2022-12-18T04:49:08;176.18;;;52.33;;
28335;SDS011;15592;53.656;7.276;2022-12-18T04:51:35;160.00;;;51.40;;
28335;SDS011;15592;53.656;7.276;2022-12-18T04:54:02;166.23;;;53.42;;
28335;SDS011;15592;53.656;7.276;2022-12-18T04:56:27;161.85;;;50.03;;
28335;SDS011;15592;53.656;7.276;2022-12-18T04:58:53;163.50;;;50.13;;
28335;SDS011;15592;53.656;7.276;2022-12-18T05:01:19;162.32;;;51.17;;
28335;SDS011;15592;53.656;7.276;2022-12-18T05:03:44;171.25;;;52.75;;
28335;SDS011;15592;53.656;7.276;2022-12-18T05:06:10;161.95;;;50.75;;
28335;SDS011;15592;53.656;7.276;2022-12-18T05:08:36;161.93;;;50.80;;
28335;SDS011;15592;53.656;7.276;2022-12-18T05:11:02;165.60;;;51.30;;
28335;SDS011;15592;53.656;7.276;2022-12-18T05:13:30;165.30;;;49.92;;
28335;SDS011;15592;53.656;7.276;2022-12-18T05:15:56;155.23;;;50.65;;
28335;SDS011;15592;53.656;7.276;2022-12-18T05:18:22;157.25;;;48.63;;
28335;SDS011;15592;53.656;7.276;2022-12-18T05:20:51;142.32;;;47.38;;
28335;SDS011;15592;53.656;7.276;2022-12-18T05:23:21;149.55;;;48.75;;
28335;SDS011;15592;53.656;7.276;2022-12-18T05:25:56;129.23;;;43.97;;
28335;SDS011;15592;53.656;7.276;2022-12-18T05:28:26;122.68;;;42.30;;
28335;SDS011;15592;53.656;7.276;2022-12-18T05:30:54;113.32;;;40.72;;
28335;SDS011;15592;53.656;7.276;2022-12-18T05:33:22;123.05;;;44.03;;
28335;SDS011;15592;53.656;7.276;2022-12-18T05:35:55;118.00;;;41.00;;
28335;SDS011;15592;53.656;7.276;2022-12-18T05:38:23;111.60;;;40.45;;
28335;SDS011;15592;53.656;7.276;2022-12-18T05:40:50;96.22;;;38.72;;
28335;SDS011;15592;53.656;7.276;2022-12-18T05:43:17;109.30;;;39.47;;
28335;SDS011;15592;53.656;7.276;2022-12-18T05:45:44;97.90;;;38.78;;
28335;SDS011;15592;53.656;7.276;2022-12-18T05:48:10;99.30;;;37.20;;
28335;SDS011;15592;53.656;7.276;2022-12-18T05:50:37;105.03;;;37.53;;
28335;SDS011;15592;53.656;7.276;2022-12-18T05:53:06;95.72;;;37.47;;
28335;SDS011;15592;53.656;7.276;2022-12-18T05:55:32;90.80;;;35.70;;
28335;SDS011;15592;53.656;7.276;2022-12-18T05:57:59;90.38;;;36.28;;
28335;SDS011;15592;53.656;7.276;2022-12-18T06:00:25;88.55;;;34.72;;
28335;SDS011;15592;53.656;7.276;2022-12-18T06:02:51;85.30;;;35.53;;
28335;SDS011;15592;53.656;7.276;2022-12-18T06:05:17;90.13;;;35.83;;
28335;SDS011;15592;53.656;7.276;2022-12-18T06:07:43;77.88;;;32.35;;
28335;SDS011;15592;53.656;7.276;2022-12-18T06:10:08;87.15;;;33.15;;
28335;SDS011;15592;53.656;7.276;2022-12-18T06:12:34;81.13;;;33.67;;
28335;SDS011;15592;53.656;7.276;2022-12-18T06:14:59;88.50;;;34.85;;
28335;SDS011;15592;53.656;7.276;2022-12-18T06:17:31;81.45;;;32.22;;
28335;SDS011;15592;53.656;7.276;2022-12-18T06:19:58;79.95;;;32.10;;
28335;SDS011;15592;53.656;7.276;2022-12-18T06:22:24;82.03;;;32.25;;
28335;SDS011;15592;53.656;7.276;2022-12-18T06:24:50;86.60;;;33.28;;
28335;SDS011;15592;53.656;7.276;2022-12-18T06:27:15;85.90;;;33.92;;
28335;SDS011;15592;53.656;7.276;2022-12-18T06:29:41;78.13;;;32.33;;
28335;SDS011;15592;53.656;7.276;2022-12-18T06:32:07;85.22;;;35.03;;
28335;SDS011;15592;53.656;7.276;2022-12-18T06:34:33;82.32;;;33.13;;
28335;SDS011;15592;53.656;7.276;2022-12-18T06:37:01;81.55;;;33.67;;
28335;SDS011;15592;53.656;7.276;2022-12-18T06:39:27;90.45;;;35.90;;
28335;SDS011;15592;53.656;7.276;2022-12-18T06:41:53;85.13;;;34.22;;
28335;SDS011;15592;53.656;7.276;2022-12-18T06:44:19;83.93;;;34.83;;
28335;SDS011;15592;53.656;7.276;2022-12-18T06:46:45;86.47;;;34.35;;
28335;SDS011;15592;53.656;7.276;2022-12-18T06:49:10;86.30;;;34.28;;
28335;SDS011;15592;53.656;7.276;2022-12-18T06:51:36;82.10;;;33.40;;
28335;SDS011;15592;53.656;7.276;2022-12-18T06:54:02;82.85;;;32.20;;
28335;SDS011;15592;53.656;7.276;2022-12-18T06:56:28;79.55;;;32.13;;
28335;SDS011;15592;53.656;7.276;2022-12-18T06:58:53;87.28;;;33.35;;
28335;SDS011;15592;53.656;7.276;2022-12-18T07:01:20;83.38;;;33.40;;
28335;SDS011;15592;53.656;7.276;2022-12-18T07:03:46;84.32;;;34.85;;
28335;SDS011;15592;53.656;7.276;2022-12-18T07:08:42;93.93;;;33.65;;
28335;SDS011;15592;53.656;7.276;2022-12-18T07:11:09;80.30;;;33.30;;
28335;SDS011;15592;53.656;7.276;2022-12-18T07:13:34;89.53;;;34.33;;
28335;SDS011;15592;53.656;7.276;2022-12-18T07:16:19;82.82;;;34.53;;
28335;SDS011;15592;53.656;7.276;2022-12-18T07:18:46;77.28;;;33.00;;
28335;SDS011;15592;53.656;7.276;2022-12-18T07:21:13;86.13;;;34.42;;
28335;SDS011;15592;53.656;7.276;2022-12-18T07:23:40;85.30;;;34.40;;
28335;SDS011;15592;53.656;7.276;2022-12-18T07:26:07;85.88;;;33.63;;
28335;SDS011;15592;53.656;7.276;2022-12-18T07:28:35;84.68;;;33.38;;
28335;SDS011;15592;53.656;7.276;2022-12-18T07:31:05;87.53;;;34.75;;
28335;SDS011;15592;53.656;7.276;2022-12-18T07:33:32;81.38;;;33.55;;
28335;SDS011;15592;53.656;7.276;2022-12-18T07:35:59;82.55;;;33.38;;
28335;SDS011;15592;53.656;7.276;2022-12-18T07:38:25;84.82;;;33.20;;
28335;SDS011;15592;53.656;7.276;2022-12-18T07:40:51;79.05;;;32.53;;
28335;SDS011;15592;53.656;7.276;2022-12-18T07:43:16;76.03;;;33.40;;
28335;SDS011;15592;53.656;7.276;2022-12-18T07:45:42;80.05;;;32.03;;
28335;SDS011;15592;53.656;7.276;2022-12-18T07:48:08;76.35;;;30.90;;
28335;SDS011;15592;53.656;7.276;2022-12-18T07:50:34;70.85;;;30.08;;
28335;SDS011;15592;53.656;7.276;2022-12-18T07:52:59;73.03;;;30.83;;
28335;SDS011;15592;53.656;7.276;2022-12-18T07:55:28;69.68;;;29.45;;
28335;SDS011;15592;53.656;7.276;2022-12-18T07:57:55;72.35;;;30.17;;
28335;SDS011;15592;53.656;7.276;2022-12-18T08:00:21;68.03;;;29.88;;
28335;SDS011;15592;53.656;7.276;2022-12-18T08:02:47;67.57;;;28.98;;
28335;SDS011;15592;53.656;7.276;2022-12-18T08:05:12;73.13;;;31.65;;
28335;SDS011;15592;53.656;7.276;2022-12-18T08:07:38;71.05;;;28.27;;
28335;SDS011;15592;53.656;7.276;2022-12-18T08:10:04;65.55;;;28.42;;
28335;SDS011;15592;53.656;7.276;2022-12-18T08:12:31;68.97;;;29.25;;
28335;SDS011;15592;53.656;7.276;2022-12-18T08:14:57;74.18;;;29.42;;
28335;SDS011;15592;53.656;7.276;2022-12-18T08:17:22;67.28;;;29.38;;
28335;SDS011;15592;53.656;7.276;2022-12-18T08:19:48;66.70;;;27.40;;
28335;SDS011;15592;53.656;7.276;2022-12-18T08:22:14;67.80;;;29.08;;
28335;SDS011;15592;53.656;7.276;2022-12-18T08:24:39;66.72;;;28.58;;
28335;SDS011;15592;53.656;7.276;2022-12-18T08:27:05;67.70;;;28.38;;
28335;SDS011;15592;53.656;7.276;2022-12-18T08:29:30;63.17;;;29.05;;
28335;SDS011;15592;53.656;7.276;2022-12-18T08:31:56;66.05;;;28.83;;
28335;SDS011;15592;53.656;7.276;2022-12-18T08:34:23;72.20;;;29.67;;
28335;SDS011;15592;53.656;7.276;2022-12-18T08:36:48;69.30;;;28.77;;
28335;SDS011;15592;53.656;7.276;2022-12-18T08:39:14;65.53;;;28.02;;
28335;SDS011;15592;53.656;7.276;2022-12-18T08:41:40;64.50;;;27.65;;
28335;SDS011;15592;53.656;7.276;2022-12-18T08:44:07;61.33;;;26.95;;
28335;SDS011;15592;53.656;7.276;2022-12-18T08:46:51;65.07;;;26.88;;
28335;SDS011;15592;53.656;7.276;2022-12-18T08:49:17;59.78;;;25.92;;
28335;SDS011;15592;53.656;7.276;2022-12-18T08:51:42;59.47;;;26.25;;
28335;SDS011;15592;53.656;7.276;2022-12-18T08:54:10;64.05;;;25.17;;
28335;SDS011;15592;53.656;7.276;2022-12-18T08:56:37;53.88;;;25.45;;
28335;SDS011;15592;53.656;7.276;2022-12-18T08:59:02;55.35;;;25.83;;
28335;SDS011;15592;53.656;7.276;2022-12-18T09:01:29;55.00;;;26.80;;
28335;SDS011;15592;53.656;7.276;2022-12-18T09:03:55;56.50;;;25.25;;
28335;SDS011;15592;53.656;7.276;2022-12-18T09:06:21;54.15;;;24.80;;
28335;SDS011;15592;53.656;7.276;2022-12-18T09:08:47;48.95;;;25.25;;
28335;SDS011;15592;53.656;7.276;2022-12-18T09:11:14;55.53;;;24.30;;
28335;SDS011;15592;53.656;7.276;2022-12-18T09:13:45;48.88;;;23.05;;
28335;SDS011;15592;53.656;7.276;2022-12-18T09:16:11;48.50;;;23.05;;
28335;SDS011;15592;53.656;7.276;2022-12-18T09:18:36;52.70;;;24.08;;
28335;SDS011;15592;53.656;7.276;2022-12-18T09:21:12;48.80;;;21.63;;
28335;SDS011;15592;53.656;7.276;2022-12-18T09:23:40;41.13;;;22.58;;
28335;SDS011;15592;53.656;7.276;2022-12-18T09:26:05;46.65;;;22.73;;
28335;SDS011;15592;53.656;7.276;2022-12-18T09:28:31;53.75;;;23.15;;
28335;SDS011;15592;53.656;7.276;2022-12-18T09:30:57;44.35;;;21.92;;
28335;SDS011;15592;53.656;7.276;2022-12-18T09:33:22;45.50;;;22.10;;
28335;SDS011;15592;53.656;7.276;2022-12-18T09:35:48;40.42;;;21.25;;
28335;SDS011;15592;53.656;7.276;2022-12-18T09:38:16;43.00;;;22.52;;
28335;SDS011;15592;53.656;7.276;2022-12-18T09:40:44;40.67;;;21.97;;
28335;SDS011;15592;53.656;7.276;2022-12-18T09:43:20;42.22;;;20.95;;
28335;SDS011;15592;53.656;7.276;2022-12-18T09:45:55;42.40;;;19.88;;
28335;SDS011;15592;53.656;7.276;2022-12-18T09:48:26;48.78;;;21.67;;
28335;SDS011;15592;53.656;7.276;2022-12-18T09:50:57;39.03;;;19.92;;
28335;SDS011;15592;53.656;7.276;2022-12-18T09:53:28;38.58;;;20.35;;
28335;SDS011;15592;53.656;7.276;2022-12-18T09:56:00;48.90;;;22.10;;
28335;SDS011;15592;53.656;7.276;2022-12-18T10:00:54;42.75;;;20.75;;
28335;SDS011;15592;53.656;7.276;2022-12-18T10:03:20;38.25;;;19.98;;
28335;SDS011;15592;53.656;7.276;2022-12-18T10:09:56;37.70;;;19.58;;
28335;SDS011;15592;53.656;7.276;2022-12-18T10:12:25;37.90;;;19.42;;
28335;SDS011;15592;53.656;7.276;2022-12-18T10:20:38;38.47;;;19.07;;
28335;SDS011;15592;53.656;7.276;2022-12-18T10:26:00;38.78;;;19.85;;
28335;SDS011;15592;53.656;7.276;2022-12-18T10:28:36;38.50;;;20.45;;
28335;SDS011;15592;53.656;7.276;2022-12-18T10:31:07;35.20;;;18.70;;
28335;SDS011;15592;53.656;7.276;2022-12-18T10:33:45;36.22;;;19.75;;
28335;SDS011;15592;53.656;7.276;2022-12-18T10:36:11;35.28;;;19.63;;
28335;SDS011;15592;53.656;7.276;2022-12-18T10:38:37;39.22;;;19.33;;
28335;SDS011;15592;53.656;7.276;2022-12-18T10:41:08;36.08;;;19.65;;
28335;SDS011;15592;53.656;7.276;2022-12-18T10:46:35;32.47;;;17.60;;
28335;SDS011;15592;53.656;7.276;2022-12-18T10:49:01;30.38;;;16.92;;
28335;SDS011;15592;53.656;7.276;2022-12-18T10:54:13;31.90;;;17.67;;
28335;SDS011;15592;53.656;7.276;2022-12-18T10:56:42;31.55;;;17.08;;
28335;SDS011;15592;53.656;7.276;2022-12-18T10:59:09;29.30;;;16.83;;
28335;SDS011;15592;53.656;7.276;2022-12-18T11:01:47;31.23;;;16.73;;
28335;SDS011;15592;53.656;7.276;2022-12-18T11:04:27;28.98;;;16.90;;
28335;SDS011;15592;53.656;7.276;2022-12-18T11:07:05;28.67;;;16.67;;
28335;SDS011;15592;53.656;7.276;2022-12-18T11:09:36;31.55;;;16.75;;
28335;SDS011;15592;53.656;7.276;2022-12-18T11:12:24;29.00;;;17.10;;
28335;SDS011;15592;53.656;7.276;2022-12-18T11:14:53;31.35;;;16.33;;
28335;SDS011;15592;53.656;7.276;2022-12-18T11:17:34;28.20;;;16.00;;
28335;SDS011;15592;53.656;7.276;2022-12-18T11:22:29;26.45;;;14.52;;
28335;SDS011;15592;53.656;7.276;2022-12-18T11:25:07;30.48;;;15.55;;
28335;SDS011;15592;53.656;7.276;2022-12-18T11:27:48;25.42;;;14.93;;
28335;SDS011;15592;53.656;7.276;2022-12-18T11:30:29;23.15;;;14.52;;
28335;SDS011;15592;53.656;7.276;2022-12-18T11:40:38;19.90;;;12.18;;
28335;SDS011;15592;53.656;7.276;2022-12-18T11:43:53;23.93;;;13.40;;
28335;SDS011;15592;53.656;7.276;2022-12-18T11:45:59;24.48;;;12.95;;
28335;SDS011;15592;53.656;7.276;2022-12-18T11:48:30;24.33;;;13.57;;
28335;SDS011;15592;53.656;7.276;2022-12-18T11:51:03;24.83;;;12.88;;
28335;SDS011;15592;53.656;7.276;2022-12-18T11:53:34;23.55;;;13.02;;
28335;SDS011;15592;53.656;7.276;2022-12-18T12:10:10;22.83;;;12.85;;
28335;SDS011;15592;53.656;7.276;2022-12-18T12:15:19;20.08;;;11.13;;
28335;SDS011;15592;53.656;7.276;2022-12-18T12:17:56;19.90;;;11.18;;
28335;SDS011;15592;53.656;7.276;2022-12-18T12:26:01;19.52;;;11.35;;
28335;SDS011;15592;53.656;7.276;2022-12-18T12:39:28;18.73;;;11.63;;
28335;SDS011;15592;53.656;7.276;2022-12-18T12:42:00;23.77;;;12.13;;
28335;SDS011;15592;53.656;7.276;2022-12-18T12:44:48;21.58;;;12.63;;
28335;SDS011;15592;53.656;7.276;2022-12-18T12:47:21;21.92;;;12.02;;
28335;SDS011;15592;53.656;7.276;2022-12-18T12:49:54;19.85;;;11.30;;
28335;SDS011;15592;53.656;7.276;2022-12-18T12:52:32;17.08;;;10.68;;
28335;SDS011;15592;53.656;7.276;2022-12-18T12:55:04;18.80;;;10.65;;
28335;SDS011;15592;53.656;7.276;2022-12-18T12:57:36;17.65;;;10.90;;
28335;SDS011;15592;53.656;7.276;2022-12-18T13:05:16;17.80;;;10.93;;
28335;SDS011;15592;53.656;7.276;2022-12-18T13:08:06;17.63;;;10.75;;
28335;SDS011;15592;53.656;7.276;2022-12-18T13:10:38;19.88;;;11.43;;
28335;SDS011;15592;53.656;7.276;2022-12-18T13:13:12;20.83;;;12.00;;
28335;SDS011;15592;53.656;7.276;2022-12-18T13:15:44;18.52;;;11.10;;
28335;SDS011;15592;53.656;7.276;2022-12-18T13:18:13;19.02;;;10.27;;
28335;SDS011;15592;53.656;7.276;2022-12-18T13:25:57;18.95;;;10.55;;
28335;SDS011;15592;53.656;7.276;2022-12-18T13:36:49;24.08;;;13.43;;
28335;SDS011;15592;53.656;7.276;2022-12-18T13:41:49;25.30;;;14.13;;
28335;SDS011;15592;53.656;7.276;2022-12-18T13:44:59;24.58;;;13.20;;
28335;SDS011;15592;53.656;7.276;2022-12-18T13:47:26;19.52;;;12.32;;
28335;SDS011;15592;53.656;7.276;2022-12-18T13:53:00;21.30;;;12.32;;
28335;SDS011;15592;53.656;7.276;2022-12-18T13:55:25;21.35;;;12.55;;
28335;SDS011;15592;53.656;7.276;2022-12-18T13:58:02;19.48;;;12.13;;
28335;SDS011;15592;53.656;7.276;2022-12-18T14:00:29;16.88;;;11.15;;
28335;SDS011;15592;53.656;7.276;2022-12-18T14:02:55;21.83;;;12.30;;
28335;SDS011;15592;53.656;7.276;2022-12-18T14:07:48;21.67;;;12.73;;
28335;SDS011;15592;53.656;7.276;2022-12-18T14:10:15;21.10;;;11.75;;
28335;SDS011;15592;53.656;7.276;2022-12-18T14:12:44;21.27;;;12.43;;
28335;SDS011;15592;53.656;7.276;2022-12-18T14:17:47;22.60;;;13.23;;
28335;SDS011;15592;53.656;7.276;2022-12-18T14:20:14;21.10;;;12.50;;
28335;SDS011;15592;53.656;7.276;2022-12-18T14:22:43;22.70;;;13.00;;
28335;SDS011;15592;53.656;7.276;2022-12-18T14:25:19;25.40;;;12.95;;
28335;SDS011;15592;53.656;7.276;2022-12-18T14:27:52;23.40;;;13.40;;
28335;SDS011;15592;53.656;7.276;2022-12-18T14:30:43;25.05;;;12.55;;
28335;SDS011;15592;53.656;7.276;2022-12-18T14:33:18;20.95;;;12.13;;
28335;SDS011;15592;53.656;7.276;2022-12-18T14:38:31;25.15;;;13.05;;
28335;SDS011;15592;53.656;7.276;2022-12-18T14:41:09;23.52;;;13.05;;
28335;SDS011;15592;53.656;7.276;2022-12-18T14:43:37;21.77;;;12.90;;
28335;SDS011;15592;53.656;7.276;2022-12-18T14:46:06;23.65;;;13.23;;
28335;SDS011;15592;53.656;7.276;2022-12-18T14:48:50;22.90;;;12.63;;
28335;SDS011;15592;53.656;7.276;2022-12-18T14:51:26;22.88;;;13.25;;
28335;SDS011;15592;53.656;7.276;2022-12-18T14:54:01;20.20;;;12.68;;
28335;SDS011;15592;53.656;7.276;2022-12-18T14:56:42;24.80;;;12.48;;
28335;SDS011;15592;53.656;7.276;2022-12-18T14:59:21;24.08;;;13.30;;
28335;SDS011;15592;53.656;7.276;2022-12-18T15:05:04;24.15;;;12.23;;
28335;SDS011;15592;53.656;7.276;2022-12-18T15:07:51;20.90;;;12.52;;
28335;SDS011;15592;53.656;7.276;2022-12-18T15:10:21;22.67;;;12.98;;
28335;SDS011;15592;53.656;7.276;2022-12-18T15:18:03;24.52;;;13.18;;
28335;SDS011;15592;53.656;7.276;2022-12-18T15:20:32;23.15;;;12.73;;
28335;SDS011;15592;53.656;7.276;2022-12-18T15:23:15;23.08;;;12.80;;
28335;SDS011;15592;53.656;7.276;2022-12-18T15:25:45;21.98;;;12.52;;
28335;SDS011;15592;53.656;7.276;2022-12-18T15:28:17;22.08;;;12.52;;
28335;SDS011;15592;53.656;7.276;2022-12-18T15:31:02;25.70;;;13.02;;
28335;SDS011;15592;53.656;7.276;2022-12-18T15:33:38;23.15;;;13.02;;
28335;SDS011;15592;53.656;7.276;2022-12-18T15:36:30;22.20;;;12.40;;
28335;SDS011;15592;53.656;7.276;2022-12-18T15:38:56;19.08;;;11.32;;
28335;SDS011;15592;53.656;7.276;2022-12-18T15:41:23;22.13;;;11.52;;
28335;SDS011;15592;53.656;7.276;2022-12-18T15:43:52;20.10;;;11.82;;
28335;SDS011;15592;53.656;7.276;2022-12-18T15:46:19;19.58;;;11.80;;
28335;SDS011;15592;53.656;7.276;2022-12-18T15:48:56;19.33;;;11.27;;
28335;SDS011;15592;53.656;7.276;2022-12-18T15:51:31;19.75;;;11.98;;
28335;SDS011;15592;53.656;7.276;2022-12-18T15:53:59;19.55;;;12.18;;
28335;SDS011;15592;53.656;7.276;2022-12-18T15:56:31;24.50;;;12.40;;
28335;SDS011;15592;53.656;7.276;2022-12-18T15:59:19;21.40;;;11.85;;
28335;SDS011;15592;53.656;7.276;2022-12-18T16:01:46;20.05;;;11.75;;
28335;SDS011;15592;53.656;7.276;2022-12-18T16:04:14;20.30;;;11.77;;
28335;SDS011;15592;53.656;7.276;2022-12-18T16:06:45;18.80;;;10.95;;
28335;SDS011;15592;53.656;7.276;2022-12-18T16:09:11;20.13;;;10.68;;
28335;SDS011;15592;53.656;7.276;2022-12-18T16:11:37;20.38;;;11.88;;
28335;SDS011;15592;53.656;7.276;2022-12-18T16:16:53;18.38;;;11.18;;
28335;SDS011;15592;53.656;7.276;2022-12-18T16:19:21;20.57;;;11.80;;
28335;SDS011;15592;53.656;7.276;2022-12-18T16:21:47;19.42;;;12.02;;
28335;SDS011;15592;53.656;7.276;2022-12-18T16:26:43;20.75;;;12.27;;
28335;SDS011;15592;53.656;7.276;2022-12-18T16:29:09;19.17;;;10.70;;
28335;SDS011;15592;53.656;7.276;2022-12-18T16:31:36;20.92;;;12.10;;
28335;SDS011;15592;53.656;7.276;2022-12-18T16:36:52;19.27;;;11.60;;
28335;SDS011;15592;53.656;7.276;2022-12-18T16:39:23;20.30;;;11.52;;
28335;SDS011;15592;53.656;7.276;2022-12-18T16:41:49;20.23;;;11.25;;
28335;SDS011;15592;53.656;7.276;2022-12-18T16:44:15;21.02;;;11.63;;
28335;SDS011;15592;53.656;7.276;2022-12-18T16:46:41;17.80;;;11.00;;
28335;SDS011;15592;53.656;7.276;2022-12-18T16:49:10;22.98;;;11.40;;
28335;SDS011;15592;53.656;7.276;2022-12-18T16:51:36;19.77;;;11.55;;
28335;SDS011;15592;53.656;7.276;2022-12-18T16:54:02;19.88;;;11.52;;
28335;SDS011;15592;53.656;7.276;2022-12-18T16:56:28;22.98;;;11.20;;
28335;SDS011;15592;53.656;7.276;2022-12-18T16:58:55;20.52;;;10.68;;
28335;SDS011;15592;53.656;7.276;2022-12-18T17:01:22;16.63;;;10.77;;
28335;SDS011;15592;53.656;7.276;2022-12-18T17:03:52;21.27;;;11.27;;